sensor_id;sensor_type;location;lat;lon;timestamp;P1;durP1;ratioP1;P2;durP2;ratioP2
46288;SDS011;63105;46.158;14.604;2023-04-19T00:02:12;6.67;;;4.27;;
46288;SDS011;63105;46.158;14.604;2023-04-19T00:04:38;5.60;;;3.77;;
46288;SDS011;63105;46.158;14.604;2023-04-19T00:07:03;5.60;;;3.40;;
46288;SDS011;63105;46.158;14.604;2023-04-19T00:09:28;4.80;;;3.03;;
46288;SDS011;63105;46.158;14.604;2023-04-19T00:11:53;4.22;;;2.75;;
46288;SDS011;63105;46.158;14.604;2023-04-19T00:14:19;4.30;;;2.50;;
46288;SDS011;63105;46.158;14.604;2023-04-19T00:16:44;5.35;;;2.75;;
46288;SDS011;63105;46.158;14.604;2023-04-19T00:19:09;4.72;;;2.20;;
46288;SDS011;63105;46.158;14.604;2023-04-19T00:21:35;4.45;;;2.70;;
46288;SDS011;63105;46.158;14.604;2023-04-19T00:24:01;5.38;;;3.53;;
46288;SDS011;63105;46.158;14.604;2023-04-19T00:26:27;4.43;;;2.95;;
46288;SDS011;63105;46.158;14.604;2023-04-19T00:28:52;4.72;;;3.00;;
46288;SDS011;63105;46.158;14.604;2023-04-19T00:31:17;4.95;;;2.92;;
46288;SDS011;63105;46.158;14.604;2023-04-19T00:33:42;5.20;;;2.93;;
46288;SDS011;63105;46.158;14.604;2023-04-19T00:36:07;4.20;;;2.83;;
46288;SDS011;63105;46.158;14.604;2023-04-19T00:38:34;3.95;;;2.40;;
46288;SDS011;63105;46.158;14.604;2023-04-19T00:40:59;4.90;;;2.90;;
46288;SDS011;63105;46.158;14.604;2023-04-19T00:43:25;5.15;;;2.90;;
46288;SDS011;63105;46.158;14.604;2023-04-19T00:45:50;5.43;;;2.83;;
46288;SDS011;63105;46.158;14.604;2023-04-19T00:48:15;5.55;;;3.00;;
46288;SDS011;63105;46.158;14.604;2023-04-19T00:50:41;4.50;;;2.78;;
46288;SDS011;63105;46.158;14.604;2023-04-19T00:53:07;4.80;;;2.88;;
46288;SDS011;63105;46.158;14.604;2023-04-19T00:55:32;5.22;;;3.28;;
46288;SDS011;63105;46.158;14.604;2023-04-19T00:57:58;5.67;;;3.57;;
46288;SDS011;63105;46.158;14.604;2023-04-19T01:00:23;5.00;;;3.50;;
46288;SDS011;63105;46.158;14.604;2023-04-19T01:02:48;5.85;;;3.50;;
46288;SDS011;63105;46.158;14.604;2023-04-19T01:05:13;5.43;;;3.45;;
46288;SDS011;63105;46.158;14.604;2023-04-19T01:07:39;4.35;;;2.75;;
46288;SDS011;63105;46.158;14.604;2023-04-19T01:10:04;4.38;;;2.50;;
46288;SDS011;63105;46.158;14.604;2023-04-19T01:12:30;4.25;;;2.75;;
46288;SDS011;63105;46.158;14.604;2023-04-19T01:14:55;4.53;;;2.70;;
46288;SDS011;63105;46.158;14.604;2023-04-19T01:17:20;6.83;;;4.70;;
46288;SDS011;63105;46.158;14.604;2023-04-19T01:19:45;6.55;;;4.40;;
46288;SDS011;63105;46.158;14.604;2023-04-19T01:22:15;6.32;;;4.07;;
46288;SDS011;63105;46.158;14.604;2023-04-19T01:24:40;4.95;;;3.20;;
46288;SDS011;63105;46.158;14.604;2023-04-19T01:27:05;5.67;;;3.67;;
46288;SDS011;63105;46.158;14.604;2023-04-19T01:29:31;7.43;;;3.67;;
46288;SDS011;63105;46.158;14.604;2023-04-19T01:31:56;5.97;;;4.00;;
46288;SDS011;63105;46.158;14.604;2023-04-19T01:34:21;5.87;;;4.17;;
46288;SDS011;63105;46.158;14.604;2023-04-19T01:36:49;6.32;;;3.60;;
46288;SDS011;63105;46.158;14.604;2023-04-19T01:39:14;5.20;;;3.65;;
46288;SDS011;63105;46.158;14.604;2023-04-19T01:41:40;5.45;;;3.67;;
46288;SDS011;63105;46.158;14.604;2023-04-19T01:44:05;6.07;;;3.80;;
46288;SDS011;63105;46.158;14.604;2023-04-19T01:46:30;4.75;;;3.30;;
46288;SDS011;63105;46.158;14.604;2023-04-19T01:48:55;5.37;;;3.10;;
46288;SDS011;63105;46.158;14.604;2023-04-19T01:51:21;4.57;;;3.00;;
46288;SDS011;63105;46.158;14.604;2023-04-19T01:53:46;5.22;;;3.10;;
46288;SDS011;63105;46.158;14.604;2023-04-19T01:56:17;4.90;;;2.92;;
46288;SDS011;63105;46.158;14.604;2023-04-19T01:58:42;4.63;;;2.85;;
46288;SDS011;63105;46.158;14.604;2023-04-19T02:01:07;4.37;;;2.50;;
46288;SDS011;63105;46.158;14.604;2023-04-19T02:03:36;4.95;;;3.10;;
46288;SDS011;63105;46.158;14.604;2023-04-19T02:06:01;5.03;;;2.90;;
46288;SDS011;63105;46.158;14.604;2023-04-19T02:08:26;5.00;;;2.37;;
46288;SDS011;63105;46.158;14.604;2023-04-19T02:10:52;4.75;;;3.08;;
46288;SDS011;63105;46.158;14.604;2023-04-19T02:13:17;4.60;;;2.75;;
46288;SDS011;63105;46.158;14.604;2023-04-19T02:15:42;5.10;;;2.87;;
46288;SDS011;63105;46.158;14.604;2023-04-19T02:18:07;4.70;;;2.80;;
46288;SDS011;63105;46.158;14.604;2023-04-19T02:20:32;4.40;;;2.50;;
46288;SDS011;63105;46.158;14.604;2023-04-19T02:22:57;4.27;;;2.77;;
46288;SDS011;63105;46.158;14.604;2023-04-19T02:25:23;3.93;;;2.57;;
46288;SDS011;63105;46.158;14.604;2023-04-19T02:27:48;5.23;;;2.77;;
46288;SDS011;63105;46.158;14.604;2023-04-19T02:30:13;4.30;;;2.53;;
46288;SDS011;63105;46.158;14.604;2023-04-19T02:32:38;3.75;;;2.30;;
46288;SDS011;63105;46.158;14.604;2023-04-19T02:35:04;4.78;;;2.70;;
46288;SDS011;63105;46.158;14.604;2023-04-19T02:37:29;5.03;;;3.05;;
46288;SDS011;63105;46.158;14.604;2023-04-19T02:39:54;4.38;;;2.60;;
46288;SDS011;63105;46.158;14.604;2023-04-19T02:42:19;4.37;;;2.63;;
46288;SDS011;63105;46.158;14.604;2023-04-19T02:44:44;4.00;;;2.40;;
46288;SDS011;63105;46.158;14.604;2023-04-19T02:47:09;4.43;;;2.53;;
46288;SDS011;63105;46.158;14.604;2023-04-19T02:49:35;4.03;;;2.50;;
46288;SDS011;63105;46.158;14.604;2023-04-19T02:52:01;4.63;;;3.00;;
46288;SDS011;63105;46.158;14.604;2023-04-19T02:54:27;6.38;;;3.50;;
46288;SDS011;63105;46.158;14.604;2023-04-19T02:56:52;5.03;;;2.93;;
46288;SDS011;63105;46.158;14.604;2023-04-19T02:59:17;5.30;;;3.37;;
46288;SDS011;63105;46.158;14.604;2023-04-19T03:01:42;4.30;;;2.77;;
46288;SDS011;63105;46.158;14.604;2023-04-19T03:04:07;4.37;;;2.67;;
46288;SDS011;63105;46.158;14.604;2023-04-19T03:06:33;4.35;;;2.60;;
46288;SDS011;63105;46.158;14.604;2023-04-19T03:08:58;4.40;;;2.80;;
46288;SDS011;63105;46.158;14.604;2023-04-19T03:11:23;4.35;;;2.58;;
46288;SDS011;63105;46.158;14.604;2023-04-19T03:13:48;4.70;;;2.70;;
46288;SDS011;63105;46.158;14.604;2023-04-19T03:16:13;5.03;;;2.50;;
46288;SDS011;63105;46.158;14.604;2023-04-19T03:18:38;4.53;;;2.67;;
46288;SDS011;63105;46.158;14.604;2023-04-19T03:21:04;4.50;;;2.70;;
46288;SDS011;63105;46.158;14.604;2023-04-19T03:23:29;4.60;;;3.00;;
46288;SDS011;63105;46.158;14.604;2023-04-19T03:25:54;6.07;;;3.45;;
46288;SDS011;63105;46.158;14.604;2023-04-19T03:28:20;5.07;;;3.15;;
46288;SDS011;63105;46.158;14.604;2023-04-19T03:30:46;6.47;;;3.73;;
46288;SDS011;63105;46.158;14.604;2023-04-19T03:33:11;5.50;;;3.27;;
46288;SDS011;63105;46.158;14.604;2023-04-19T03:35:36;4.82;;;2.95;;
46288;SDS011;63105;46.158;14.604;2023-04-19T03:38:02;5.03;;;3.00;;
46288;SDS011;63105;46.158;14.604;2023-04-19T03:40:28;4.80;;;2.90;;
46288;SDS011;63105;46.158;14.604;2023-04-19T03:42:53;4.45;;;2.60;;
46288;SDS011;63105;46.158;14.604;2023-04-19T03:45:18;5.25;;;2.90;;
46288;SDS011;63105;46.158;14.604;2023-04-19T03:47:44;4.65;;;2.88;;
46288;SDS011;63105;46.158;14.604;2023-04-19T03:50:09;6.10;;;3.00;;
46288;SDS011;63105;46.158;14.604;2023-04-19T03:52:35;5.05;;;3.00;;
46288;SDS011;63105;46.158;14.604;2023-04-19T03:55:00;6.35;;;3.38;;
46288;SDS011;63105;46.158;14.604;2023-04-19T03:57:25;5.07;;;3.30;;
46288;SDS011;63105;46.158;14.604;2023-04-19T03:59:50;4.93;;;2.97;;
46288;SDS011;63105;46.158;14.604;2023-04-19T04:02:16;4.67;;;3.00;;
46288;SDS011;63105;46.158;14.604;2023-04-19T04:04:41;4.70;;;2.83;;
46288;SDS011;63105;46.158;14.604;2023-04-19T04:07:06;4.85;;;2.88;;
46288;SDS011;63105;46.158;14.604;2023-04-19T04:09:31;4.87;;;2.90;;
46288;SDS011;63105;46.158;14.604;2023-04-19T04:11:56;4.00;;;2.50;;
46288;SDS011;63105;46.158;14.604;2023-04-19T04:14:22;4.70;;;2.83;;
46288;SDS011;63105;46.158;14.604;2023-04-19T04:16:47;4.35;;;2.80;;
46288;SDS011;63105;46.158;14.604;2023-04-19T04:19:12;4.73;;;2.93;;
46288;SDS011;63105;46.158;14.604;2023-04-19T04:21:38;5.20;;;2.87;;
46288;SDS011;63105;46.158;14.604;2023-04-19T04:24:03;5.28;;;3.20;;
46288;SDS011;63105;46.158;14.604;2023-04-19T04:26:28;4.95;;;2.80;;
46288;SDS011;63105;46.158;14.604;2023-04-19T04:28:54;4.38;;;2.75;;
46288;SDS011;63105;46.158;14.604;2023-04-19T04:31:20;4.88;;;3.05;;
46288;SDS011;63105;46.158;14.604;2023-04-19T04:33:45;5.50;;;3.00;;
46288;SDS011;63105;46.158;14.604;2023-04-19T04:36:10;5.03;;;3.30;;
46288;SDS011;63105;46.158;14.604;2023-04-19T04:38:36;4.63;;;2.88;;
46288;SDS011;63105;46.158;14.604;2023-04-19T04:41:01;4.80;;;3.08;;
46288;SDS011;63105;46.158;14.604;2023-04-19T04:43:27;4.75;;;3.05;;
46288;SDS011;63105;46.158;14.604;2023-04-19T04:45:53;5.03;;;3.00;;
46288;SDS011;63105;46.158;14.604;2023-04-19T04:48:19;4.63;;;2.83;;
46288;SDS011;63105;46.158;14.604;2023-04-19T04:50:45;3.83;;;2.33;;
46288;SDS011;63105;46.158;14.604;2023-04-19T04:53:10;5.07;;;2.90;;
46288;SDS011;63105;46.158;14.604;2023-04-19T04:55:36;5.07;;;3.08;;
46288;SDS011;63105;46.158;14.604;2023-04-19T04:58:01;4.40;;;2.90;;
46288;SDS011;63105;46.158;14.604;2023-04-19T05:00:29;4.38;;;2.60;;
46288;SDS011;63105;46.158;14.604;2023-04-19T05:02:54;4.93;;;2.83;;
46288;SDS011;63105;46.158;14.604;2023-04-19T05:05:20;4.73;;;2.80;;
46288;SDS011;63105;46.158;14.604;2023-04-19T05:07:45;4.25;;;2.85;;
46288;SDS011;63105;46.158;14.604;2023-04-19T05:10:10;4.95;;;2.85;;
46288;SDS011;63105;46.158;14.604;2023-04-19T05:12:36;4.75;;;2.72;;
46288;SDS011;63105;46.158;14.604;2023-04-19T05:15:01;4.90;;;2.88;;
46288;SDS011;63105;46.158;14.604;2023-04-19T05:17:26;5.05;;;3.08;;
46288;SDS011;63105;46.158;14.604;2023-04-19T05:19:52;4.67;;;2.97;;
46288;SDS011;63105;46.158;14.604;2023-04-19T05:22:17;5.25;;;2.90;;
46288;SDS011;63105;46.158;14.604;2023-04-19T05:24:42;5.60;;;2.83;;
46288;SDS011;63105;46.158;14.604;2023-04-19T05:27:07;5.00;;;2.80;;
46288;SDS011;63105;46.158;14.604;2023-04-19T05:29:33;4.90;;;2.75;;
46288;SDS011;63105;46.158;14.604;2023-04-19T05:31:58;6.35;;;3.45;;
46288;SDS011;63105;46.158;14.604;2023-04-19T05:34:24;5.82;;;3.35;;
46288;SDS011;63105;46.158;14.604;2023-04-19T05:36:49;6.78;;;3.30;;
46288;SDS011;63105;46.158;14.604;2023-04-19T05:39:14;6.57;;;3.40;;
46288;SDS011;63105;46.158;14.604;2023-04-19T05:41:39;6.70;;;3.40;;
46288;SDS011;63105;46.158;14.604;2023-04-19T05:44:05;6.63;;;3.10;;
46288;SDS011;63105;46.158;14.604;2023-04-19T05:46:30;6.13;;;3.20;;
46288;SDS011;63105;46.158;14.604;2023-04-19T05:48:55;4.90;;;2.90;;
46288;SDS011;63105;46.158;14.604;2023-04-19T05:51:21;4.97;;;3.03;;
46288;SDS011;63105;46.158;14.604;2023-04-19T05:53:46;5.10;;;3.10;;
46288;SDS011;63105;46.158;14.604;2023-04-19T05:56:11;4.90;;;2.92;;
46288;SDS011;63105;46.158;14.604;2023-04-19T05:58:36;6.37;;;3.20;;
46288;SDS011;63105;46.158;14.604;2023-04-19T06:01:01;5.23;;;3.00;;
46288;SDS011;63105;46.158;14.604;2023-04-19T06:03:27;6.20;;;2.80;;
46288;SDS011;63105;46.158;14.604;2023-04-19T06:05:53;5.07;;;2.90;;
46288;SDS011;63105;46.158;14.604;2023-04-19T06:08:18;4.70;;;2.83;;
46288;SDS011;63105;46.158;14.604;2023-04-19T06:10:44;4.45;;;2.55;;
46288;SDS011;63105;46.158;14.604;2023-04-19T06:13:11;4.35;;;2.90;;
46288;SDS011;63105;46.158;14.604;2023-04-19T06:15:36;4.43;;;2.67;;
46288;SDS011;63105;46.158;14.604;2023-04-19T06:18:03;5.00;;;2.67;;
46288;SDS011;63105;46.158;14.604;2023-04-19T06:20:33;5.32;;;3.20;;
46288;SDS011;63105;46.158;14.604;2023-04-19T06:22:59;5.55;;;2.97;;
46288;SDS011;63105;46.158;14.604;2023-04-19T06:25:24;6.68;;;3.00;;
46288;SDS011;63105;46.158;14.604;2023-04-19T06:27:49;4.47;;;2.77;;
46288;SDS011;63105;46.158;14.604;2023-04-19T06:30:15;6.45;;;3.70;;
46288;SDS011;63105;46.158;14.604;2023-04-19T06:32:40;5.53;;;3.47;;
46288;SDS011;63105;46.158;14.604;2023-04-19T06:35:05;5.68;;;3.50;;
46288;SDS011;63105;46.158;14.604;2023-04-19T06:37:32;6.57;;;2.97;;
46288;SDS011;63105;46.158;14.604;2023-04-19T06:39:57;6.30;;;3.47;;
46288;SDS011;63105;46.158;14.604;2023-04-19T06:42:22;6.13;;;3.83;;
46288;SDS011;63105;46.158;14.604;2023-04-19T06:44:49;7.50;;;4.43;;
46288;SDS011;63105;46.158;14.604;2023-04-19T06:47:15;7.00;;;4.78;;
46288;SDS011;63105;46.158;14.604;2023-04-19T06:49:40;5.90;;;3.50;;
46288;SDS011;63105;46.158;14.604;2023-04-19T06:52:05;7.90;;;4.43;;
46288;SDS011;63105;46.158;14.604;2023-04-19T06:54:30;8.03;;;5.40;;
46288;SDS011;63105;46.158;14.604;2023-04-19T06:56:56;7.25;;;4.85;;
46288;SDS011;63105;46.158;14.604;2023-04-19T06:59:21;6.80;;;4.20;;
46288;SDS011;63105;46.158;14.604;2023-04-19T07:01:46;5.75;;;3.35;;
46288;SDS011;63105;46.158;14.604;2023-04-19T07:04:12;5.43;;;3.83;;
46288;SDS011;63105;46.158;14.604;2023-04-19T07:06:37;5.45;;;3.70;;
46288;SDS011;63105;46.158;14.604;2023-04-19T07:09:04;5.35;;;3.40;;
46288;SDS011;63105;46.158;14.604;2023-04-19T07:11:30;6.50;;;3.33;;
46288;SDS011;63105;46.158;14.604;2023-04-19T07:13:55;4.95;;;3.15;;
46288;SDS011;63105;46.158;14.604;2023-04-19T07:16:20;4.32;;;2.65;;
46288;SDS011;63105;46.158;14.604;2023-04-19T07:18:46;4.70;;;2.73;;
46288;SDS011;63105;46.158;14.604;2023-04-19T07:21:11;4.37;;;2.70;;
46288;SDS011;63105;46.158;14.604;2023-04-19T07:23:36;4.90;;;2.50;;
46288;SDS011;63105;46.158;14.604;2023-04-19T07:26:01;5.28;;;2.65;;
46288;SDS011;63105;46.158;14.604;2023-04-19T07:28:30;3.67;;;2.20;;
46288;SDS011;63105;46.158;14.604;2023-04-19T07:30:55;4.35;;;2.40;;
46288;SDS011;63105;46.158;14.604;2023-04-19T07:33:21;4.47;;;2.60;;
46288;SDS011;63105;46.158;14.604;2023-04-19T07:35:46;4.43;;;2.53;;
46288;SDS011;63105;46.158;14.604;2023-04-19T07:38:12;4.10;;;2.40;;
46288;SDS011;63105;46.158;14.604;2023-04-19T07:40:37;4.80;;;2.90;;
46288;SDS011;63105;46.158;14.604;2023-04-19T07:43:02;3.70;;;2.10;;
46288;SDS011;63105;46.158;14.604;2023-04-19T07:45:29;3.95;;;2.25;;
46288;SDS011;63105;46.158;14.604;2023-04-19T07:47:54;3.58;;;1.98;;
46288;SDS011;63105;46.158;14.604;2023-04-19T07:50:19;3.50;;;1.93;;
46288;SDS011;63105;46.158;14.604;2023-04-19T07:52:45;3.10;;;1.73;;
46288;SDS011;63105;46.158;14.604;2023-04-19T07:55:10;3.83;;;1.90;;
46288;SDS011;63105;46.158;14.604;2023-04-19T07:57:35;3.47;;;2.03;;
46288;SDS011;63105;46.158;14.604;2023-04-19T08:00:01;3.58;;;2.00;;
46288;SDS011;63105;46.158;14.604;2023-04-19T08:02:26;4.18;;;1.73;;
46288;SDS011;63105;46.158;14.604;2023-04-19T08:04:51;3.65;;;1.60;;
46288;SDS011;63105;46.158;14.604;2023-04-19T08:07:17;3.20;;;1.70;;
46288;SDS011;63105;46.158;14.604;2023-04-19T08:09:42;3.20;;;1.63;;
46288;SDS011;63105;46.158;14.604;2023-04-19T08:12:07;3.47;;;1.70;;
46288;SDS011;63105;46.158;14.604;2023-04-19T08:14:32;2.77;;;1.40;;
46288;SDS011;63105;46.158;14.604;2023-04-19T08:16:58;3.50;;;1.45;;
46288;SDS011;63105;46.158;14.604;2023-04-19T08:19:23;2.80;;;1.40;;
46288;SDS011;63105;46.158;14.604;2023-04-19T08:21:48;3.40;;;1.30;;
46288;SDS011;63105;46.158;14.604;2023-04-19T08:24:13;3.53;;;1.40;;
46288;SDS011;63105;46.158;14.604;2023-04-19T08:26:39;2.67;;;1.37;;
46288;SDS011;63105;46.158;14.604;2023-04-19T08:29:04;2.95;;;1.40;;
46288;SDS011;63105;46.158;14.604;2023-04-19T08:31:29;3.53;;;1.45;;
46288;SDS011;63105;46.158;14.604;2023-04-19T08:33:55;3.40;;;1.40;;
46288;SDS011;63105;46.158;14.604;2023-04-19T08:36:21;3.10;;;1.30;;
46288;SDS011;63105;46.158;14.604;2023-04-19T08:38:46;3.25;;;1.45;;
46288;SDS011;63105;46.158;14.604;2023-04-19T08:41:12;2.83;;;1.10;;
46288;SDS011;63105;46.158;14.604;2023-04-19T08:43:38;2.15;;;1.05;;
46288;SDS011;63105;46.158;14.604;2023-04-19T08:46:04;2.58;;;1.10;;
46288;SDS011;63105;46.158;14.604;2023-04-19T08:48:32;4.45;;;1.75;;
46288;SDS011;63105;46.158;14.604;2023-04-19T08:50:58;2.75;;;1.40;;
46288;SDS011;63105;46.158;14.604;2023-04-19T08:53:24;2.97;;;1.20;;
46288;SDS011;63105;46.158;14.604;2023-04-19T08:55:52;2.70;;;1.20;;
46288;SDS011;63105;46.158;14.604;2023-04-19T08:58:22;2.97;;;1.33;;
46288;SDS011;63105;46.158;14.604;2023-04-19T09:00:47;2.80;;;1.30;;
46288;SDS011;63105;46.158;14.604;2023-04-19T09:03:13;2.88;;;1.30;;
46288;SDS011;63105;46.158;14.604;2023-04-19T09:05:38;2.80;;;1.23;;
46288;SDS011;63105;46.158;14.604;2023-04-19T09:10:57;2.58;;;1.10;;
46288;SDS011;63105;46.158;14.604;2023-04-19T09:13:23;2.50;;;1.17;;
46288;SDS011;63105;46.158;14.604;2023-04-19T09:15:48;2.38;;;1.13;;
46288;SDS011;63105;46.158;14.604;2023-04-19T09:18:15;2.95;;;1.23;;
46288;SDS011;63105;46.158;14.604;2023-04-19T09:20:41;2.75;;;1.30;;
46288;SDS011;63105;46.158;14.604;2023-04-19T09:23:07;2.42;;;1.08;;
46288;SDS011;63105;46.158;14.604;2023-04-19T09:25:32;2.50;;;1.20;;
46288;SDS011;63105;46.158;14.604;2023-04-19T09:28:11;2.20;;;1.00;;
46288;SDS011;63105;46.158;14.604;2023-04-19T09:30:36;2.35;;;1.10;;
46288;SDS011;63105;46.158;14.604;2023-04-19T09:33:02;2.53;;;1.00;;
46288;SDS011;63105;46.158;14.604;2023-04-19T09:38:05;2.15;;;1.02;;
46288;SDS011;63105;46.158;14.604;2023-04-19T09:40:30;1.92;;;0.90;;
46288;SDS011;63105;46.158;14.604;2023-04-19T09:42:56;2.15;;;0.88;;
46288;SDS011;63105;46.158;14.604;2023-04-19T09:45:21;2.40;;;1.13;;
46288;SDS011;63105;46.158;14.604;2023-04-19T09:47:59;2.37;;;1.00;;
46288;SDS011;63105;46.158;14.604;2023-04-19T09:50:24;2.28;;;1.20;;
46288;SDS011;63105;46.158;14.604;2023-04-19T09:52:50;2.30;;;1.07;;
46288;SDS011;63105;46.158;14.604;2023-04-19T09:55:16;1.77;;;1.00;;
46288;SDS011;63105;46.158;14.604;2023-04-19T09:57:42;2.45;;;1.00;;
46288;SDS011;63105;46.158;14.604;2023-04-19T10:00:08;2.60;;;1.00;;
46288;SDS011;63105;46.158;14.604;2023-04-19T10:02:37;2.85;;;1.27;;
46288;SDS011;63105;46.158;14.604;2023-04-19T10:05:03;2.55;;;1.10;;
46288;SDS011;63105;46.158;14.604;2023-04-19T10:07:28;2.25;;;1.10;;
46288;SDS011;63105;46.158;14.604;2023-04-19T10:09:55;2.03;;;0.90;;
46288;SDS011;63105;46.158;14.604;2023-04-19T10:12:25;2.67;;;1.00;;
46288;SDS011;63105;46.158;14.604;2023-04-19T10:14:51;2.80;;;1.20;;
46288;SDS011;63105;46.158;14.604;2023-04-19T10:17:16;2.30;;;1.15;;
46288;SDS011;63105;46.158;14.604;2023-04-19T10:19:42;2.70;;;1.10;;
46288;SDS011;63105;46.158;14.604;2023-04-19T10:22:07;1.70;;;0.80;;
46288;SDS011;63105;46.158;14.604;2023-04-19T10:24:33;2.03;;;0.95;;
46288;SDS011;63105;46.158;14.604;2023-04-19T10:27:10;2.67;;;1.10;;
46288;SDS011;63105;46.158;14.604;2023-04-19T10:32:20;2.20;;;1.13;;
46288;SDS011;63105;46.158;14.604;2023-04-19T10:34:45;2.33;;;1.20;;
46288;SDS011;63105;46.158;14.604;2023-04-19T10:37:12;2.55;;;1.30;;
46288;SDS011;63105;46.158;14.604;2023-04-19T10:39:38;3.70;;;1.30;;
46288;SDS011;63105;46.158;14.604;2023-04-19T10:42:03;1.80;;;1.00;;
46288;SDS011;63105;46.158;14.604;2023-04-19T10:44:29;2.10;;;1.00;;
46288;SDS011;63105;46.158;14.604;2023-04-19T10:46:54;2.73;;;1.00;;
46288;SDS011;63105;46.158;14.604;2023-04-19T10:49:19;1.83;;;0.82;;
46288;SDS011;63105;46.158;14.604;2023-04-19T10:51:49;2.55;;;1.00;;
46288;SDS011;63105;46.158;14.604;2023-04-19T10:54:28;1.73;;;0.90;;
46288;SDS011;63105;46.158;14.604;2023-04-19T10:59:33;2.55;;;0.90;;
46288;SDS011;63105;46.158;14.604;2023-04-19T11:01:59;3.42;;;1.27;;
46288;SDS011;63105;46.158;14.604;2023-04-19T11:07:02;2.50;;;1.00;;
46288;SDS011;63105;46.158;14.604;2023-04-19T11:09:31;2.67;;;1.00;;
46288;SDS011;63105;46.158;14.604;2023-04-19T11:12:05;3.92;;;1.30;;
46288;SDS011;63105;46.158;14.604;2023-04-19T11:14:36;3.20;;;1.30;;
46288;SDS011;63105;46.158;14.604;2023-04-19T11:17:03;3.10;;;1.20;;
46288;SDS011;63105;46.158;14.604;2023-04-19T11:19:28;2.20;;;1.00;;
46288;SDS011;63105;46.158;14.604;2023-04-19T11:21:56;2.45;;;1.10;;
46288;SDS011;63105;46.158;14.604;2023-04-19T11:24:21;2.10;;;1.10;;
46288;SDS011;63105;46.158;14.604;2023-04-19T11:26:47;2.53;;;1.07;;
46288;SDS011;63105;46.158;14.604;2023-04-19T11:29:12;2.63;;;0.82;;
46288;SDS011;63105;46.158;14.604;2023-04-19T11:31:38;2.03;;;0.93;;
46288;SDS011;63105;46.158;14.604;2023-04-19T11:34:03;2.45;;;1.05;;
46288;SDS011;63105;46.158;14.604;2023-04-19T11:36:28;3.03;;;1.00;;
46288;SDS011;63105;46.158;14.604;2023-04-19T11:38:55;3.53;;;1.20;;
46288;SDS011;63105;46.158;14.604;2023-04-19T11:41:21;3.65;;;1.20;;
46288;SDS011;63105;46.158;14.604;2023-04-19T11:43:46;4.10;;;1.10;;
46288;SDS011;63105;46.158;14.604;2023-04-19T11:46:12;2.40;;;1.00;;
46288;SDS011;63105;46.158;14.604;2023-04-19T11:48:38;2.67;;;1.20;;
46288;SDS011;63105;46.158;14.604;2023-04-19T11:51:03;3.60;;;1.45;;
46288;SDS011;63105;46.158;14.604;2023-04-19T11:53:29;4.85;;;1.30;;
46288;SDS011;63105;46.158;14.604;2023-04-19T11:55:56;2.08;;;0.88;;
46288;SDS011;63105;46.158;14.604;2023-04-19T12:00:50;2.38;;;0.88;;
46288;SDS011;63105;46.158;14.604;2023-04-19T12:03:19;3.35;;;1.30;;
46288;SDS011;63105;46.158;14.604;2023-04-19T12:05:51;4.35;;;1.20;;
46288;SDS011;63105;46.158;14.604;2023-04-19T12:08:16;2.20;;;1.05;;
46288;SDS011;63105;46.158;14.604;2023-04-19T12:10:54;3.47;;;1.43;;
46288;SDS011;63105;46.158;14.604;2023-04-19T12:13:19;2.40;;;1.00;;
46288;SDS011;63105;46.158;14.604;2023-04-19T12:15:45;3.30;;;1.00;;
46288;SDS011;63105;46.158;14.604;2023-04-19T12:18:10;2.33;;;1.10;;
46288;SDS011;63105;46.158;14.604;2023-04-19T12:20:42;4.70;;;1.30;;
46288;SDS011;63105;46.158;14.604;2023-04-19T12:23:07;2.40;;;1.25;;
46288;SDS011;63105;46.158;14.604;2023-04-19T12:25:35;2.58;;;1.23;;
46288;SDS011;63105;46.158;14.604;2023-04-19T12:28:01;3.33;;;1.20;;
46288;SDS011;63105;46.158;14.604;2023-04-19T12:30:27;2.80;;;1.27;;
46288;SDS011;63105;46.158;14.604;2023-04-19T12:32:53;2.20;;;1.10;;
46288;SDS011;63105;46.158;14.604;2023-04-19T12:35:25;1.48;;;0.75;;
46288;SDS011;63105;46.158;14.604;2023-04-19T12:37:51;2.25;;;1.02;;
46288;SDS011;63105;46.158;14.604;2023-04-19T12:40:17;1.95;;;0.90;;
46288;SDS011;63105;46.158;14.604;2023-04-19T12:42:42;2.43;;;1.00;;
46288;SDS011;63105;46.158;14.604;2023-04-19T12:45:08;2.57;;;1.10;;
46288;SDS011;63105;46.158;14.604;2023-04-19T12:47:33;2.40;;;0.90;;
46288;SDS011;63105;46.158;14.604;2023-04-19T12:49:59;2.67;;;1.00;;
46288;SDS011;63105;46.158;14.604;2023-04-19T12:52:24;2.88;;;1.33;;
46288;SDS011;63105;46.158;14.604;2023-04-19T12:54:49;2.77;;;1.10;;
46288;SDS011;63105;46.158;14.604;2023-04-19T12:57:14;2.97;;;1.30;;
46288;SDS011;63105;46.158;14.604;2023-04-19T12:59:40;4.03;;;1.52;;
46288;SDS011;63105;46.158;14.604;2023-04-19T13:02:05;2.60;;;1.30;;
46288;SDS011;63105;46.158;14.604;2023-04-19T13:04:30;3.53;;;1.60;;
46288;SDS011;63105;46.158;14.604;2023-04-19T13:06:56;2.70;;;1.40;;
46288;SDS011;63105;46.158;14.604;2023-04-19T13:09:21;3.30;;;1.60;;
46288;SDS011;63105;46.158;14.604;2023-04-19T13:11:46;2.87;;;1.40;;
46288;SDS011;63105;46.158;14.604;2023-04-19T13:14:11;2.97;;;1.37;;
46288;SDS011;63105;46.158;14.604;2023-04-19T13:16:37;2.73;;;1.40;;
46288;SDS011;63105;46.158;14.604;2023-04-19T13:19:02;2.53;;;1.23;;
46288;SDS011;63105;46.158;14.604;2023-04-19T13:21:27;4.05;;;1.38;;
46288;SDS011;63105;46.158;14.604;2023-04-19T13:23:52;3.60;;;1.17;;
46288;SDS011;63105;46.158;14.604;2023-04-19T13:26:17;2.30;;;1.10;;
46288;SDS011;63105;46.158;14.604;2023-04-19T13:28:42;2.17;;;1.20;;
46288;SDS011;63105;46.158;14.604;2023-04-19T13:31:08;2.55;;;0.98;;
46288;SDS011;63105;46.158;14.604;2023-04-19T13:33:33;2.45;;;1.25;;
46288;SDS011;63105;46.158;14.604;2023-04-19T13:35:59;2.50;;;1.13;;
46288;SDS011;63105;46.158;14.604;2023-04-19T13:38:24;2.47;;;1.23;;
46288;SDS011;63105;46.158;14.604;2023-04-19T13:40:49;3.10;;;1.30;;
46288;SDS011;63105;46.158;14.604;2023-04-19T13:43:15;3.08;;;1.20;;
46288;SDS011;63105;46.158;14.604;2023-04-19T13:45:40;1.97;;;0.90;;
46288;SDS011;63105;46.158;14.604;2023-04-19T13:48:05;2.73;;;1.20;;
46288;SDS011;63105;46.158;14.604;2023-04-19T13:50:30;2.53;;;1.00;;
46288;SDS011;63105;46.158;14.604;2023-04-19T13:52:56;2.70;;;1.07;;
46288;SDS011;63105;46.158;14.604;2023-04-19T13:55:21;3.80;;;1.53;;
46288;SDS011;63105;46.158;14.604;2023-04-19T13:57:46;3.30;;;1.40;;
46288;SDS011;63105;46.158;14.604;2023-04-19T14:00:11;2.57;;;1.20;;
46288;SDS011;63105;46.158;14.604;2023-04-19T14:02:37;3.30;;;1.30;;
46288;SDS011;63105;46.158;14.604;2023-04-19T14:05:02;2.97;;;1.45;;
46288;SDS011;63105;46.158;14.604;2023-04-19T14:07:28;4.72;;;2.30;;
46288;SDS011;63105;46.158;14.604;2023-04-19T14:09:53;3.37;;;1.43;;
46288;SDS011;63105;46.158;14.604;2023-04-19T14:12:18;3.35;;;1.70;;
46288;SDS011;63105;46.158;14.604;2023-04-19T14:14:44;3.33;;;1.60;;
46288;SDS011;63105;46.158;14.604;2023-04-19T14:17:09;4.28;;;1.63;;
46288;SDS011;63105;46.158;14.604;2023-04-19T14:19:35;8.03;;;2.00;;
46288;SDS011;63105;46.158;14.604;2023-04-19T14:22:00;4.70;;;1.92;;
46288;SDS011;63105;46.158;14.604;2023-04-19T14:24:26;4.27;;;1.87;;
46288;SDS011;63105;46.158;14.604;2023-04-19T14:26:51;4.67;;;2.43;;
46288;SDS011;63105;46.158;14.604;2023-04-19T14:29:16;4.13;;;1.80;;
46288;SDS011;63105;46.158;14.604;2023-04-19T14:31:41;4.90;;;2.33;;
46288;SDS011;63105;46.158;14.604;2023-04-19T14:34:06;5.37;;;2.50;;
46288;SDS011;63105;46.158;14.604;2023-04-19T14:36:31;4.20;;;2.10;;
46288;SDS011;63105;46.158;14.604;2023-04-19T14:38:57;5.73;;;2.73;;
46288;SDS011;63105;46.158;14.604;2023-04-19T14:41:22;7.57;;;2.80;;